Dallas, Texas
Traffic Map
Current Weather Conditions
Dallas, Texas
Few Clouds
Few Clouds
32°
Feels Like: 36°
Wind Chill: 32° Ceiling: Unl
Heat Index: 36° Visibility: 10mi
Dew Point: 22° Wind: 8mph
Humidity: 55% Direction: 220° (SW)
Pressure: 29.99in Gusts: 0mph
Raw Report DataKDAL 231453Z 22007KT 10SM FEW250 32/22 A2999 RMK AO2 SLP148 T03220222 50008 $
Traffic Incident Summary
Active as of:
Severity:
Category:
InformationThere was an issue retrieving the traffic information for this location. Please try a different location or try again shortly.
Advertisements
Track Severe Weather on mobile